sensor_id;sensor_type;location;lat;lon;timestamp;temperature;humidity
32097;DHT22;18610;49.916;8.284;2023-06-10T00:01:14;19.50;96.20
32097;DHT22;18610;49.916;8.284;2023-06-10T00:03:41;19.50;96.40
32097;DHT22;18610;49.916;8.284;2023-06-10T00:06:09;19.40;96.60
32097;DHT22;18610;49.916;8.284;2023-06-10T00:08:38;19.30;96.80
32097;DHT22;18610;49.916;8.284;2023-06-10T00:11:05;19.30;97.00
32097;DHT22;18610;49.916;8.284;2023-06-10T00:13:32;19.20;97.10
32097;DHT22;18610;49.916;8.284;2023-06-10T00:15:58;19.20;97.30
32097;DHT22;18610;49.916;8.284;2023-06-10T00:18:25;19.20;97.50
32097;DHT22;18610;49.916;8.284;2023-06-10T00:20:53;19.20;97.70
32097;DHT22;18610;49.916;8.284;2023-06-10T00:23:20;19.10;97.90
32097;DHT22;18610;49.916;8.284;2023-06-10T00:25:49;19.10;98.10
32097;DHT22;18610;49.916;8.284;2023-06-10T00:28:16;19.10;98.40
32097;DHT22;18610;49.916;8.284;2023-06-10T00:30:42;19.00;98.60
32097;DHT22;18610;49.916;8.284;2023-06-10T00:33:09;19.00;98.80
32097;DHT22;18610;49.916;8.284;2023-06-10T00:35:36;19.00;99.00
32097;DHT22;18610;49.916;8.284;2023-06-10T00:38:02;18.90;99.10
32097;DHT22;18610;49.916;8.284;2023-06-10T00:40:29;18.90;99.40
32097;DHT22;18610;49.916;8.284;2023-06-10T00:42:57;18.90;99.60
32097;DHT22;18610;49.916;8.284;2023-06-10T00:45:24;18.90;99.70
32097;DHT22;18610;49.916;8.284;2023-06-10T00:47:51;18.80;99.80
32097;DHT22;18610;49.916;8.284;2023-06-10T00:50:18;18.90;99.90
32097;DHT22;18610;49.916;8.284;2023-06-10T00:52:45;18.80;99.90
32097;DHT22;18610;49.916;8.284;2023-06-10T00:55:14;18.70;99.90
32097;DHT22;18610;49.916;8.284;2023-06-10T00:57:42;18.70;99.90
32097;DHT22;18610;49.916;8.284;2023-06-10T01:00:12;18.60;99.90
32097;DHT22;18610;49.916;8.284;2023-06-10T01:02:39;18.60;99.90
32097;DHT22;18610;49.916;8.284;2023-06-10T01:05:06;18.60;99.90
32097;DHT22;18610;49.916;8.284;2023-06-10T01:07:36;18.50;99.90
32097;DHT22;18610;49.916;8.284;2023-06-10T01:10:11;18.50;99.90
32097;DHT22;18610;49.916;8.284;2023-06-10T01:12:41;18.50;99.90
32097;DHT22;18610;49.916;8.284;2023-06-10T01:15:15;18.40;99.90
32097;DHT22;18610;49.916;8.284;2023-06-10T01:17:56;18.30;99.90
32097;DHT22;18610;49.916;8.284;2023-06-10T01:20:23;18.20;99.90
32097;DHT22;18610;49.916;8.284;2023-06-10T01:22:53;18.10;99.90
32097;DHT22;18610;49.916;8.284;2023-06-10T01:25:21;18.10;99.90
32097;DHT22;18610;49.916;8.284;2023-06-10T01:27:54;18.10;99.90
32097;DHT22;18610;49.916;8.284;2023-06-10T01:30:28;18.00;99.90
32097;DHT22;18610;49.916;8.284;2023-06-10T01:32:58;18.00;99.90
32097;DHT22;18610;49.916;8.284;2023-06-10T01:35:26;17.90;99.90
32097;DHT22;18610;49.916;8.284;2023-06-10T01:37:57;17.90;99.90
32097;DHT22;18610;49.916;8.284;2023-06-10T01:40:25;17.90;99.90
32097;DHT22;18610;49.916;8.284;2023-06-10T01:42:53;17.90;99.90
32097;DHT22;18610;49.916;8.284;2023-06-10T01:45:19;17.90;99.90
32097;DHT22;18610;49.916;8.284;2023-06-10T01:47:46;17.80;99.90
32097;DHT22;18610;49.916;8.284;2023-06-10T01:50:13;17.80;99.90
32097;DHT22;18610;49.916;8.284;2023-06-10T01:52:40;17.80;99.90
32097;DHT22;18610;49.916;8.284;2023-06-10T01:55:08;17.80;99.90
32097;DHT22;18610;49.916;8.284;2023-06-10T01:57:35;17.70;99.90
32097;DHT22;18610;49.916;8.284;2023-06-10T02:00:02;17.70;99.90
32097;DHT22;18610;49.916;8.284;2023-06-10T02:02:29;17.70;99.90
32097;DHT22;18610;49.916;8.284;2023-06-10T02:04:56;17.60;99.90
32097;DHT22;18610;49.916;8.284;2023-06-10T02:07:23;17.60;99.90
32097;DHT22;18610;49.916;8.284;2023-06-10T02:09:49;17.60;99.90
32097;DHT22;18610;49.916;8.284;2023-06-10T02:12:17;17.60;99.90
32097;DHT22;18610;49.916;8.284;2023-06-10T02:14:44;17.50;99.90
32097;DHT22;18610;49.916;8.284;2023-06-10T02:17:11;17.50;99.90
32097;DHT22;18610;49.916;8.284;2023-06-10T02:19:40;17.50;99.90
32097;DHT22;18610;49.916;8.284;2023-06-10T02:22:08;17.40;99.90
32097;DHT22;18610;49.916;8.284;2023-06-10T02:24:35;17.40;99.90
32097;DHT22;18610;49.916;8.284;2023-06-10T02:27:03;17.40;99.90
32097;DHT22;18610;49.916;8.284;2023-06-10T02:29:33;17.30;99.90
32097;DHT22;18610;49.916;8.284;2023-06-10T02:32:01;17.30;99.90
32097;DHT22;18610;49.916;8.284;2023-06-10T02:34:28;17.30;99.90
32097;DHT22;18610;49.916;8.284;2023-06-10T02:36:55;17.20;99.90
32097;DHT22;18610;49.916;8.284;2023-06-10T02:39:22;17.20;99.90
32097;DHT22;18610;49.916;8.284;2023-06-10T02:41:48;17.10;99.90
32097;DHT22;18610;49.916;8.284;2023-06-10T02:44:15;17.10;99.90
32097;DHT22;18610;49.916;8.284;2023-06-10T02:46:43;17.00;99.90
32097;DHT22;18610;49.916;8.284;2023-06-10T02:51:37;17.00;99.90
32097;DHT22;18610;49.916;8.284;2023-06-10T02:54:04;17.00;99.90
32097;DHT22;18610;49.916;8.284;2023-06-10T02:56:31;17.00;99.90
32097;DHT22;18610;49.916;8.284;2023-06-10T02:58:58;17.00;99.90
32097;DHT22;18610;49.916;8.284;2023-06-10T03:01:26;17.00;99.90
32097;DHT22;18610;49.916;8.284;2023-06-10T03:03:54;16.90;99.90
32097;DHT22;18610;49.916;8.284;2023-06-10T03:06:21;16.90;99.90
32097;DHT22;18610;49.916;8.284;2023-06-10T03:08:50;16.80;99.90
32097;DHT22;18610;49.916;8.284;2023-06-10T03:11:17;16.80;99.90
32097;DHT22;18610;49.916;8.284;2023-06-10T03:13:44;16.80;99.90
32097;DHT22;18610;49.916;8.284;2023-06-10T03:16:12;16.70;99.90
32097;DHT22;18610;49.916;8.284;2023-06-10T03:18:38;16.70;99.90
32097;DHT22;18610;49.916;8.284;2023-06-10T03:21:06;16.70;99.90
32097;DHT22;18610;49.916;8.284;2023-06-10T03:23:34;16.70;99.90
32097;DHT22;18610;49.916;8.284;2023-06-10T03:26:01;16.60;99.90
32097;DHT22;18610;49.916;8.284;2023-06-10T03:28:28;16.60;99.90
32097;DHT22;18610;49.916;8.284;2023-06-10T03:30:55;16.60;99.90
32097;DHT22;18610;49.916;8.284;2023-06-10T03:33:21;16.60;99.90
32097;DHT22;18610;49.916;8.284;2023-06-10T03:35:48;16.50;99.90
32097;DHT22;18610;49.916;8.284;2023-06-10T03:38:16;16.50;99.90
32097;DHT22;18610;49.916;8.284;2023-06-10T03:40:43;16.50;99.90
32097;DHT22;18610;49.916;8.284;2023-06-10T03:43:10;16.50;99.90
32097;DHT22;18610;49.916;8.284;2023-06-10T03:45:36;16.50;99.90
32097;DHT22;18610;49.916;8.284;2023-06-10T03:48:04;16.50;99.90
32097;DHT22;18610;49.916;8.284;2023-06-10T03:50:31;16.50;99.90
32097;DHT22;18610;49.916;8.284;2023-06-10T03:52:58;16.40;99.90
32097;DHT22;18610;49.916;8.284;2023-06-10T03:55:27;16.40;99.90
32097;DHT22;18610;49.916;8.284;2023-06-10T03:57:54;16.50;99.90
32097;DHT22;18610;49.916;8.284;2023-06-10T04:00:21;16.40;99.90
32097;DHT22;18610;49.916;8.284;2023-06-10T04:02:48;16.50;99.90
32097;DHT22;18610;49.916;8.284;2023-06-10T04:05:17;16.50;99.90
32097;DHT22;18610;49.916;8.284;2023-06-10T04:07:46;16.50;99.90
32097;DHT22;18610;49.916;8.284;2023-06-10T04:10:14;16.60;99.90
32097;DHT22;18610;49.916;8.284;2023-06-10T04:12:42;16.60;99.90
32097;DHT22;18610;49.916;8.284;2023-06-10T04:15:09;16.60;99.90
32097;DHT22;18610;49.916;8.284;2023-06-10T04:17:37;16.60;99.90
32097;DHT22;18610;49.916;8.284;2023-06-10T04:20:05;16.70;99.90
32097;DHT22;18610;49.916;8.284;2023-06-10T04:22:33;16.70;99.90
32097;DHT22;18610;49.916;8.284;2023-06-10T04:25:00;16.80;99.90
32097;DHT22;18610;49.916;8.284;2023-06-10T04:27:26;16.80;99.90
32097;DHT22;18610;49.916;8.284;2023-06-10T04:29:54;16.90;99.90
32097;DHT22;18610;49.916;8.284;2023-06-10T04:32:21;16.90;99.90
32097;DHT22;18610;49.916;8.284;2023-06-10T04:34:48;17.00;99.90
32097;DHT22;18610;49.916;8.284;2023-06-10T04:37:15;17.10;99.90
32097;DHT22;18610;49.916;8.284;2023-06-10T04:39:42;17.10;99.90
32097;DHT22;18610;49.916;8.284;2023-06-10T04:42:08;17.20;99.90
32097;DHT22;18610;49.916;8.284;2023-06-10T04:44:35;17.30;99.90
32097;DHT22;18610;49.916;8.284;2023-06-10T04:47:04;17.40;99.90
32097;DHT22;18610;49.916;8.284;2023-06-10T04:49:31;17.40;99.90
32097;DHT22;18610;49.916;8.284;2023-06-10T04:51:58;17.60;99.90
32097;DHT22;18610;49.916;8.284;2023-06-10T04:54:25;17.60;99.90
32097;DHT22;18610;49.916;8.284;2023-06-10T04:56:52;17.70;99.90
32097;DHT22;18610;49.916;8.284;2023-06-10T04:59:19;17.80;99.90
32097;DHT22;18610;49.916;8.284;2023-06-10T05:01:46;17.90;99.90
32097;DHT22;18610;49.916;8.284;2023-06-10T05:04:15;18.00;99.90
32097;DHT22;18610;49.916;8.284;2023-06-10T05:06:42;18.20;99.90
32097;DHT22;18610;49.916;8.284;2023-06-10T05:09:09;18.30;99.90
32097;DHT22;18610;49.916;8.284;2023-06-10T05:11:36;18.40;99.90
32097;DHT22;18610;49.916;8.284;2023-06-10T05:14:03;18.60;99.90
32097;DHT22;18610;49.916;8.284;2023-06-10T05:16:29;18.70;99.90
32097;DHT22;18610;49.916;8.284;2023-06-10T05:18:56;18.90;99.90
32097;DHT22;18610;49.916;8.284;2023-06-10T05:21:24;19.00;99.90
32097;DHT22;18610;49.916;8.284;2023-06-10T05:23:51;19.20;99.90
32097;DHT22;18610;49.916;8.284;2023-06-10T05:26:18;19.30;99.90
32097;DHT22;18610;49.916;8.284;2023-06-10T05:28:44;19.50;99.90
32097;DHT22;18610;49.916;8.284;2023-06-10T05:31:11;19.60;99.90
32097;DHT22;18610;49.916;8.284;2023-06-10T05:33:39;19.70;99.90
32097;DHT22;18610;49.916;8.284;2023-06-10T05:36:06;19.90;99.90
32097;DHT22;18610;49.916;8.284;2023-06-10T05:38:34;20.10;99.90
32097;DHT22;18610;49.916;8.284;2023-06-10T05:41:00;20.20;99.90
32097;DHT22;18610;49.916;8.284;2023-06-10T05:43:27;20.30;99.50
32097;DHT22;18610;49.916;8.284;2023-06-10T05:45:54;20.50;99.10
32097;DHT22;18610;49.916;8.284;2023-06-10T05:48:20;20.60;98.40
32097;DHT22;18610;49.916;8.284;2023-06-10T05:50:47;20.80;98.00
32097;DHT22;18610;49.916;8.284;2023-06-10T05:53:14;20.90;97.80
32097;DHT22;18610;49.916;8.284;2023-06-10T05:55:43;21.00;97.40
32097;DHT22;18610;49.916;8.284;2023-06-10T05:58:10;21.10;97.30
32097;DHT22;18610;49.916;8.284;2023-06-10T06:00:37;21.30;97.10
32097;DHT22;18610;49.916;8.284;2023-06-10T06:03:06;21.40;96.80
32097;DHT22;18610;49.916;8.284;2023-06-10T06:05:32;21.50;96.20
32097;DHT22;18610;49.916;8.284;2023-06-10T06:08:00;21.70;95.60
32097;DHT22;18610;49.916;8.284;2023-06-10T06:10:27;21.80;95.00
32097;DHT22;18610;49.916;8.284;2023-06-10T06:12:55;21.90;94.20
32097;DHT22;18610;49.916;8.284;2023-06-10T06:15:22;22.00;94.10
32097;DHT22;18610;49.916;8.284;2023-06-10T06:17:49;22.10;93.80
32097;DHT22;18610;49.916;8.284;2023-06-10T06:20:18;22.30;93.20
32097;DHT22;18610;49.916;8.284;2023-06-10T06:22:44;22.30;92.80
32097;DHT22;18610;49.916;8.284;2023-06-10T06:25:11;22.50;92.40
32097;DHT22;18610;49.916;8.284;2023-06-10T06:27:38;22.60;91.90
32097;DHT22;18610;49.916;8.284;2023-06-10T06:30:07;22.60;91.40
32097;DHT22;18610;49.916;8.284;2023-06-10T06:32:34;22.80;91.00
32097;DHT22;18610;49.916;8.284;2023-06-10T06:35:01;22.90;90.80
32097;DHT22;18610;49.916;8.284;2023-06-10T06:37:28;23.00;90.30
32097;DHT22;18610;49.916;8.284;2023-06-10T06:39:54;23.10;90.00
32097;DHT22;18610;49.916;8.284;2023-06-10T06:42:21;23.20;87.60
32097;DHT22;18610;49.916;8.284;2023-06-10T06:44:48;23.20;87.60
32097;DHT22;18610;49.916;8.284;2023-06-10T06:47:16;23.30;86.90
32097;DHT22;18610;49.916;8.284;2023-06-10T06:49:45;23.40;86.20
32097;DHT22;18610;49.916;8.284;2023-06-10T06:52:12;23.50;86.20
32097;DHT22;18610;49.916;8.284;2023-06-10T06:54:39;23.60;83.90
32097;DHT22;18610;49.916;8.284;2023-06-10T06:57:06;23.60;83.90
32097;DHT22;18610;49.916;8.284;2023-06-10T06:59:33;23.70;83.10
32097;DHT22;18610;49.916;8.284;2023-06-10T07:02:00;23.80;82.90
32097;DHT22;18610;49.916;8.284;2023-06-10T07:04:28;23.90;82.00
32097;DHT22;18610;49.916;8.284;2023-06-10T07:06:55;24.00;81.30
32097;DHT22;18610;49.916;8.284;2023-06-10T07:09:22;24.10;80.90
32097;DHT22;18610;49.916;8.284;2023-06-10T07:11:49;24.20;81.30
32097;DHT22;18610;49.916;8.284;2023-06-10T07:14:15;24.30;80.60
32097;DHT22;18610;49.916;8.284;2023-06-10T07:16:42;24.40;80.60
32097;DHT22;18610;49.916;8.284;2023-06-10T07:19:10;24.60;79.10
32097;DHT22;18610;49.916;8.284;2023-06-10T07:21:38;24.60;78.40
32097;DHT22;18610;49.916;8.284;2023-06-10T07:24:05;24.70;78.80
32097;DHT22;18610;49.916;8.284;2023-06-10T07:26:32;24.80;78.80
32097;DHT22;18610;49.916;8.284;2023-06-10T07:28:59;24.80;78.00
32097;DHT22;18610;49.916;8.284;2023-06-10T07:31:26;25.00;78.20
32097;DHT22;18610;49.916;8.284;2023-06-10T07:33:52;25.10;76.90
32097;DHT22;18610;49.916;8.284;2023-06-10T07:36:19;25.20;76.20
32097;DHT22;18610;49.916;8.284;2023-06-10T07:38:47;25.30;75.80
32097;DHT22;18610;49.916;8.284;2023-06-10T07:41:14;25.40;75.60
32097;DHT22;18610;49.916;8.284;2023-06-10T07:43:43;25.50;74.90
32097;DHT22;18610;49.916;8.284;2023-06-10T07:46:10;25.60;74.90
32097;DHT22;18610;49.916;8.284;2023-06-10T07:48:36;25.70;74.70
32097;DHT22;18610;49.916;8.284;2023-06-10T07:51:03;25.80;73.20
32097;DHT22;18610;49.916;8.284;2023-06-10T07:53:30;25.90;72.70
32097;DHT22;18610;49.916;8.284;2023-06-10T07:55:58;25.90;71.40
32097;DHT22;18610;49.916;8.284;2023-06-10T07:58:25;26.00;71.90
32097;DHT22;18610;49.916;8.284;2023-06-10T08:00:54;26.10;71.30
32097;DHT22;18610;49.916;8.284;2023-06-10T08:03:20;26.10;71.10
32097;DHT22;18610;49.916;8.284;2023-06-10T08:05:47;26.30;73.00
32097;DHT22;18610;49.916;8.284;2023-06-10T08:08:14;26.40;71.70
32097;DHT22;18610;49.916;8.284;2023-06-10T08:10:41;26.60;70.60
32097;DHT22;18610;49.916;8.284;2023-06-10T08:13:09;26.70;70.40
32097;DHT22;18610;49.916;8.284;2023-06-10T08:15:36;26.80;69.20
32097;DHT22;18610;49.916;8.284;2023-06-10T08:18:02;27.00;68.80
32097;DHT22;18610;49.916;8.284;2023-06-10T08:20:29;27.00;68.00
32097;DHT22;18610;49.916;8.284;2023-06-10T08:22:56;27.10;67.20
32097;DHT22;18610;49.916;8.284;2023-06-10T08:25:23;27.10;66.70
32097;DHT22;18610;49.916;8.284;2023-06-10T08:27:50;27.20;66.60
32097;DHT22;18610;49.916;8.284;2023-06-10T08:30:18;27.30;67.00
32097;DHT22;18610;49.916;8.284;2023-06-10T08:32:45;27.30;65.50
32097;DHT22;18610;49.916;8.284;2023-06-10T08:35:12;27.30;65.10
32097;DHT22;18610;49.916;8.284;2023-06-10T08:37:38;27.50;65.30
32097;DHT22;18610;49.916;8.284;2023-06-10T08:40:06;27.50;64.20
32097;DHT22;18610;49.916;8.284;2023-06-10T08:42:39;27.60;65.00
32097;DHT22;18610;49.916;8.284;2023-06-10T08:45:07;27.70;64.20
32097;DHT22;18610;49.916;8.284;2023-06-10T08:47:39;27.70;63.30
32097;DHT22;18610;49.916;8.284;2023-06-10T08:50:08;27.70;62.90
32097;DHT22;18610;49.916;8.284;2023-06-10T08:52:36;27.80;63.30
32097;DHT22;18610;49.916;8.284;2023-06-10T08:55:05;28.00;63.60
32097;DHT22;18610;49.916;8.284;2023-06-10T08:57:36;28.10;62.70
32097;DHT22;18610;49.916;8.284;2023-06-10T09:00:05;28.20;63.00
32097;DHT22;18610;49.916;8.284;2023-06-10T09:02:33;28.40;62.20
32097;DHT22;18610;49.916;8.284;2023-06-10T09:05:02;28.60;61.40
32097;DHT22;18610;49.916;8.284;2023-06-10T09:07:30;28.70;59.70
32097;DHT22;18610;49.916;8.284;2023-06-10T09:10:01;28.70;60.30
32097;DHT22;18610;49.916;8.284;2023-06-10T09:12:32;28.80;60.50
32097;DHT22;18610;49.916;8.284;2023-06-10T09:14:59;28.90;59.50
32097;DHT22;18610;49.916;8.284;2023-06-10T09:17:26;29.00;58.60
32097;DHT22;18610;49.916;8.284;2023-06-10T09:19:53;29.00;58.50
32097;DHT22;18610;49.916;8.284;2023-06-10T09:22:22;29.10;58.40
32097;DHT22;18610;49.916;8.284;2023-06-10T09:24:51;29.10;59.40
32097;DHT22;18610;49.916;8.284;2023-06-10T09:27:18;29.20;58.50
32097;DHT22;18610;49.916;8.284;2023-06-10T09:29:51;29.20;58.30
32097;DHT22;18610;49.916;8.284;2023-06-10T09:32:19;29.30;58.00
32097;DHT22;18610;49.916;8.284;2023-06-10T09:34:46;29.40;57.50
32097;DHT22;18610;49.916;8.284;2023-06-10T09:37:20;29.40;56.70
32097;DHT22;18610;49.916;8.284;2023-06-10T09:40:01;29.40;58.20
32097;DHT22;18610;49.916;8.284;2023-06-10T09:42:32;29.40;57.40
32097;DHT22;18610;49.916;8.284;2023-06-10T09:44:59;29.50;58.20
32097;DHT22;18610;49.916;8.284;2023-06-10T09:47:26;29.60;58.30
32097;DHT22;18610;49.916;8.284;2023-06-10T09:49:53;29.60;58.20
32097;DHT22;18610;49.916;8.284;2023-06-10T09:52:23;29.80;57.40
32097;DHT22;18610;49.916;8.284;2023-06-10T09:54:52;30.00;57.20
32097;DHT22;18610;49.916;8.284;2023-06-10T09:57:20;30.00;57.10
32097;DHT22;18610;49.916;8.284;2023-06-10T09:59:47;30.10;57.50
32097;DHT22;18610;49.916;8.284;2023-06-10T10:02:15;30.20;57.00
32097;DHT22;18610;49.916;8.284;2023-06-10T10:04:42;30.30;56.10
32097;DHT22;18610;49.916;8.284;2023-06-10T10:07:09;30.30;55.50
32097;DHT22;18610;49.916;8.284;2023-06-10T10:09:36;30.40;54.50
32097;DHT22;18610;49.916;8.284;2023-06-10T10:12:09;30.40;55.30
32097;DHT22;18610;49.916;8.284;2023-06-10T10:14:37;30.50;55.00
32097;DHT22;18610;49.916;8.284;2023-06-10T10:17:07;30.50;55.40
32097;DHT22;18610;49.916;8.284;2023-06-10T10:19:42;30.50;54.60
32097;DHT22;18610;49.916;8.284;2023-06-10T10:22:15;30.60;54.10
32097;DHT22;18610;49.916;8.284;2023-06-10T10:24:49;30.60;55.20
32097;DHT22;18610;49.916;8.284;2023-06-10T10:27:21;30.80;54.00
32097;DHT22;18610;49.916;8.284;2023-06-10T10:29:52;30.90;53.80
32097;DHT22;18610;49.916;8.284;2023-06-10T10:32:21;31.10;53.70
32097;DHT22;18610;49.916;8.284;2023-06-10T10:34:56;31.10;52.30
32097;DHT22;18610;49.916;8.284;2023-06-10T10:37:24;31.10;52.80
32097;DHT22;18610;49.916;8.284;2023-06-10T10:39:52;31.10;52.60
32097;DHT22;18610;49.916;8.284;2023-06-10T10:42:21;31.30;52.40
32097;DHT22;18610;49.916;8.284;2023-06-10T10:44:49;31.50;52.90
32097;DHT22;18610;49.916;8.284;2023-06-10T10:47:20;31.60;52.70
32097;DHT22;18610;49.916;8.284;2023-06-10T10:49:50;31.70;52.30
32097;DHT22;18610;49.916;8.284;2023-06-10T10:52:17;31.80;51.50
32097;DHT22;18610;49.916;8.284;2023-06-10T10:54:46;31.70;51.00
32097;DHT22;18610;49.916;8.284;2023-06-10T10:57:14;31.80;52.00
32097;DHT22;18610;49.916;8.284;2023-06-10T10:59:56;31.80;51.40
32097;DHT22;18610;49.916;8.284;2023-06-10T11:02:36;31.80;50.40
32097;DHT22;18610;49.916;8.284;2023-06-10T11:05:05;31.90;50.10
32097;DHT22;18610;49.916;8.284;2023-06-10T11:07:34;31.90;49.10
32097;DHT22;18610;49.916;8.284;2023-06-10T11:10:03;31.90;49.10
32097;DHT22;18610;49.916;8.284;2023-06-10T11:12:49;32.00;49.60
32097;DHT22;18610;49.916;8.284;2023-06-10T11:15:20;32.30;49.00
32097;DHT22;18610;49.916;8.284;2023-06-10T11:18:09;32.50;48.30
32097;DHT22;18610;49.916;8.284;2023-06-10T11:20:56;32.60;48.50
32097;DHT22;18610;49.916;8.284;2023-06-10T11:23:40;32.40;48.80
32097;DHT22;18610;49.916;8.284;2023-06-10T11:26:29;32.40;49.00
32097;DHT22;18610;49.916;8.284;2023-06-10T11:29:10;32.30;49.50
32097;DHT22;18610;49.916;8.284;2023-06-10T11:31:46;32.30;48.80
32097;DHT22;18610;49.916;8.284;2023-06-10T11:34:20;32.40;48.80
32097;DHT22;18610;49.916;8.284;2023-06-10T11:36:49;32.40;49.00
32097;DHT22;18610;49.916;8.284;2023-06-10T11:39:17;32.60;48.10
32097;DHT22;18610;49.916;8.284;2023-06-10T11:41:45;32.60;48.00
32097;DHT22;18610;49.916;8.284;2023-06-10T11:44:13;32.60;47.40
32097;DHT22;18610;49.916;8.284;2023-06-10T11:46:41;32.50;47.90
32097;DHT22;18610;49.916;8.284;2023-06-10T11:49:10;32.30;47.10
32097;DHT22;18610;49.916;8.284;2023-06-10T11:51:39;32.30;47.20
32097;DHT22;18610;49.916;8.284;2023-06-10T11:54:08;32.40;47.90
32097;DHT22;18610;49.916;8.284;2023-06-10T11:56:35;32.60;48.60
32097;DHT22;18610;49.916;8.284;2023-06-10T11:59:05;32.70;48.40
32097;DHT22;18610;49.916;8.284;2023-06-10T12:01:33;32.60;48.50
32097;DHT22;18610;49.916;8.284;2023-06-10T12:04:03;32.40;49.20
32097;DHT22;18610;49.916;8.284;2023-06-10T12:06:42;32.20;48.90
32097;DHT22;18610;49.916;8.284;2023-06-10T12:09:20;32.20;48.90
32097;DHT22;18610;49.916;8.284;2023-06-10T12:11:49;32.00;48.70
32097;DHT22;18610;49.916;8.284;2023-06-10T12:14:16;32.00;49.00
32097;DHT22;18610;49.916;8.284;2023-06-10T12:16:48;32.10;49.10
32097;DHT22;18610;49.916;8.284;2023-06-10T12:19:15;32.50;50.50
32097;DHT22;18610;49.916;8.284;2023-06-10T12:21:44;32.80;47.70
32097;DHT22;18610;49.916;8.284;2023-06-10T12:24:11;33.00;46.60
32097;DHT22;18610;49.916;8.284;2023-06-10T12:26:40;32.80;46.90
32097;DHT22;18610;49.916;8.284;2023-06-10T12:29:21;32.70;46.20
32097;DHT22;18610;49.916;8.284;2023-06-10T12:31:54;32.70;46.20
32097;DHT22;18610;49.916;8.284;2023-06-10T12:34:34;32.70;47.50
32097;DHT22;18610;49.916;8.284;2023-06-10T12:37:04;33.00;45.30
32097;DHT22;18610;49.916;8.284;2023-06-10T12:39:31;33.10;45.10
32097;DHT22;18610;49.916;8.284;2023-06-10T12:41:58;33.30;45.10
32097;DHT22;18610;49.916;8.284;2023-06-10T12:44:29;33.30;44.30
32097;DHT22;18610;49.916;8.284;2023-06-10T12:46:56;33.20;43.90
32097;DHT22;18610;49.916;8.284;2023-06-10T12:49:23;33.20;43.40
32097;DHT22;18610;49.916;8.284;2023-06-10T12:51:50;33.30;44.10
32097;DHT22;18610;49.916;8.284;2023-06-10T12:54:18;33.40;42.60
32097;DHT22;18610;49.916;8.284;2023-06-10T12:56:45;33.60;42.40
32097;DHT22;18610;49.916;8.284;2023-06-10T12:59:11;33.80;42.30
32097;DHT22;18610;49.916;8.284;2023-06-10T13:01:38;34.00;40.80
32097;DHT22;18610;49.916;8.284;2023-06-10T13:04:05;34.20;41.90
32097;DHT22;18610;49.916;8.284;2023-06-10T13:06:33;34.30;42.00
32097;DHT22;18610;49.916;8.284;2023-06-10T13:09:02;34.20;41.10
32097;DHT22;18610;49.916;8.284;2023-06-10T13:11:31;33.80;41.30
32097;DHT22;18610;49.916;8.284;2023-06-10T13:13:58;33.30;42.00
32097;DHT22;18610;49.916;8.284;2023-06-10T13:16:25;33.10;42.80
32097;DHT22;18610;49.916;8.284;2023-06-10T13:18:53;32.90;42.40
32097;DHT22;18610;49.916;8.284;2023-06-10T13:21:20;32.80;42.00
32097;DHT22;18610;49.916;8.284;2023-06-10T13:23:47;32.70;42.20
32097;DHT22;18610;49.916;8.284;2023-06-10T13:26:14;32.80;42.30
32097;DHT22;18610;49.916;8.284;2023-06-10T13:28:43;32.90;42.60
32097;DHT22;18610;49.916;8.284;2023-06-10T13:31:09;33.10;42.50
32097;DHT22;18610;49.916;8.284;2023-06-10T13:33:36;33.30;42.40
32097;DHT22;18610;49.916;8.284;2023-06-10T13:36:04;33.30;41.20
32097;DHT22;18610;49.916;8.284;2023-06-10T13:38:31;33.30;40.60
32097;DHT22;18610;49.916;8.284;2023-06-10T13:40:57;33.30;41.00
32097;DHT22;18610;49.916;8.284;2023-06-10T13:43:24;33.30;41.80
32097;DHT22;18610;49.916;8.284;2023-06-10T13:45:52;33.20;41.40
32097;DHT22;18610;49.916;8.284;2023-06-10T13:48:19;33.30;41.40
32097;DHT22;18610;49.916;8.284;2023-06-10T13:50:46;33.40;41.10
32097;DHT22;18610;49.916;8.284;2023-06-10T13:53:13;33.50;40.60
32097;DHT22;18610;49.916;8.284;2023-06-10T13:55:40;33.60;40.30
32097;DHT22;18610;49.916;8.284;2023-06-10T13:58:06;33.80;40.00
32097;DHT22;18610;49.916;8.284;2023-06-10T14:00:33;34.10;40.10
32097;DHT22;18610;49.916;8.284;2023-06-10T14:03:01;34.00;39.80
32097;DHT22;18610;49.916;8.284;2023-06-10T14:05:29;33.70;40.20
32097;DHT22;18610;49.916;8.284;2023-06-10T14:07:55;33.50;40.90
32097;DHT22;18610;49.916;8.284;2023-06-10T14:10:22;33.30;40.40
32097;DHT22;18610;49.916;8.284;2023-06-10T14:12:49;33.30;41.00
32097;DHT22;18610;49.916;8.284;2023-06-10T14:15:16;33.30;41.90
32097;DHT22;18610;49.916;8.284;2023-06-10T14:17:43;33.30;42.10
32097;DHT22;18610;49.916;8.284;2023-06-10T14:20:12;33.40;42.60
32097;DHT22;18610;49.916;8.284;2023-06-10T14:22:39;33.50;42.60
32097;DHT22;18610;49.916;8.284;2023-06-10T14:25:06;33.60;41.70
32097;DHT22;18610;49.916;8.284;2023-06-10T14:27:33;33.80;42.00
32097;DHT22;18610;49.916;8.284;2023-06-10T14:30:00;33.80;41.30
32097;DHT22;18610;49.916;8.284;2023-06-10T14:32:28;33.60;41.90
32097;DHT22;18610;49.916;8.284;2023-06-10T14:34:55;33.40;41.50
32097;DHT22;18610;49.916;8.284;2023-06-10T14:37:23;33.00;41.20
32097;DHT22;18610;49.916;8.284;2023-06-10T14:39:49;32.70;41.00
32097;DHT22;18610;49.916;8.284;2023-06-10T14:42:16;32.50;41.80
32097;DHT22;18610;49.916;8.284;2023-06-10T14:44:43;32.50;42.10
32097;DHT22;18610;49.916;8.284;2023-06-10T14:47:10;32.50;42.40
32097;DHT22;18610;49.916;8.284;2023-06-10T14:49:36;32.60;43.20
32097;DHT22;18610;49.916;8.284;2023-06-10T14:52:04;32.70;43.50
32097;DHT22;18610;49.916;8.284;2023-06-10T14:54:32;32.80;43.30
32097;DHT22;18610;49.916;8.284;2023-06-10T14:56:58;33.00;44.10
32097;DHT22;18610;49.916;8.284;2023-06-10T14:59:25;33.00;42.90
32097;DHT22;18610;49.916;8.284;2023-06-10T15:01:52;33.00;43.10
32097;DHT22;18610;49.916;8.284;2023-06-10T15:04:19;33.00;42.50
32097;DHT22;18610;49.916;8.284;2023-06-10T15:06:46;33.10;42.90
32097;DHT22;18610;49.916;8.284;2023-06-10T15:09:14;33.20;42.40
32097;DHT22;18610;49.916;8.284;2023-06-10T15:11:42;33.30;42.90
32097;DHT22;18610;49.916;8.284;2023-06-10T15:14:09;33.30;41.50
32097;DHT22;18610;49.916;8.284;2023-06-10T15:16:36;33.30;41.40
32097;DHT22;18610;49.916;8.284;2023-06-10T15:19:02;33.30;41.50
32097;DHT22;18610;49.916;8.284;2023-06-10T15:21:32;33.40;41.70
32097;DHT22;18610;49.916;8.284;2023-06-10T15:23:58;33.40;41.30
32097;DHT22;18610;49.916;8.284;2023-06-10T15:26:25;33.40;41.00
32097;DHT22;18610;49.916;8.284;2023-06-10T15:28:53;33.40;42.00
32097;DHT22;18610;49.916;8.284;2023-06-10T15:31:20;33.60;42.70
32097;DHT22;18610;49.916;8.284;2023-06-10T15:33:47;33.70;42.50
32097;DHT22;18610;49.916;8.284;2023-06-10T15:36:14;33.70;42.10
32097;DHT22;18610;49.916;8.284;2023-06-10T15:38:41;33.80;42.00